Aviation Digital Data Service (ADDS)

Output produced by METARs form (1956 UTC 15 December 2017)
found at http://www.aviationweather.gov/adds/metars/
 
METAR text: KLBE 151950Z 24012G25KT 10SM BKN026 OVC035 M03/M08 A2988
Conditions at: KLBE (LATROBE/WESTMORL, PA, US) observed 1950 UTC 15 December 2017
Temperature: -3.0°C (27°F)
Dewpoint: -8.0°C (18°F) [RH = 68%]
Pressure (altimeter): 29.88 inches Hg (1011.9 mb)
Winds: from the WSW (240 degrees) at 14 MPH (12 knots; 6.2 m/s)
gusting to 29 MPH (25 knots; 13.0 m/s)
Visibility: 10 or more miles (16+ km)
Ceiling: 2600 feet AGL
Clouds: broken clouds at 2600 feet AGL
overcast cloud deck at 3500 feet AGL
Weather: no significant weather observed at this time

METAR text: KLBE 151847Z 23010G18KT 10SM BKN025 OVC035 M03/M08 A2988
Conditions at: KLBE (LATROBE/WESTMORL, PA, US) observed 1847 UTC 15 December 2017
Temperature: -3.0°C (27°F)
Dewpoint: -8.0°C (18°F) [RH = 68%]
Pressure (altimeter): 29.88 inches Hg (1011.9 mb)
Winds: from the SW (230 degrees) at 12 MPH (10 knots; 5.2 m/s)
gusting to 21 MPH (18 knots; 9.4 m/s)
Visibility: 10 or more miles (16+ km)
Ceiling: 2500 feet AGL
Clouds: broken clouds at 2500 feet AGL
overcast cloud deck at 3500 feet AGL
Weather: no significant weather observed at this time

METAR text: KLBE 151747Z 23010G17KT 10SM BKN024 OVC032 M04/M08 A2990
Conditions at: KLBE (LATROBE/WESTMORL, PA, US) observed 1747 UTC 15 December 2017
Temperature: -4.0°C (25°F)
Dewpoint: -8.0°C (18°F) [RH = 74%]
Pressure (altimeter): 29.90 inches Hg (1012.6 mb)
Winds: from the SW (230 degrees) at 12 MPH (10 knots; 5.2 m/s)
gusting to 20 MPH (17 knots; 8.8 m/s)
Visibility: 10 or more miles (16+ km)
Ceiling: 2400 feet AGL
Clouds: broken clouds at 2400 feet AGL
overcast cloud deck at 3200 feet AGL
Weather: no significant weather observed at this time

METAR text: KLBE 151647Z 22010KT 10SM OVC030 M04/M08 A2992
Conditions at: KLBE (LATROBE/WESTMORL, PA, US) observed 1647 UTC 15 December 2017
Temperature: -4.0°C (25°F)
Dewpoint: -8.0°C (18°F) [RH = 74%]
Pressure (altimeter): 29.92 inches Hg (1013.3 mb)
Winds: from the SW (220 degrees) at 12 MPH (10 knots; 5.2 m/s)
Visibility: 10 or more miles (16+ km)
Ceiling: 3000 feet AGL
Clouds: overcast cloud deck at 3000 feet AGL
Weather: no significant weather observed at this time

METAR text: KLBE 151550Z 22006KT 8SM OVC032 M05/M08 A2995
Conditions at: KLBE (LATROBE/WESTMORL, PA, US) observed 1550 UTC 15 December 2017
Temperature: -5.0°C (23°F)
Dewpoint: -8.0°C (18°F) [RH = 79%]
Pressure (altimeter): 29.95 inches Hg (1014.3 mb)
Winds: from the SW (220 degrees) at 7 MPH (6 knots; 3.1 m/s)
Visibility: 8 miles (13 km)
Ceiling: 3200 feet AGL
Clouds: overcast cloud deck at 3200 feet AGL
Weather: no significant weather observed at this time

METAR text: KLBE 151459Z 00000KT 10SM OVC032 M07/M09 A2996
Conditions at: KLBE (LATROBE/WESTMORL, PA, US) observed 1459 UTC 15 December 2017
Temperature: -7.0°C (19°F)
Dewpoint: -9.0°C (16°F) [RH = 86%]
Pressure (altimeter): 29.96 inches Hg (1014.6 mb)
Winds: calm
Visibility: 10 or more miles (16+ km)
Ceiling: 3200 feet AGL
Clouds: overcast cloud deck at 3200 feet AGL
Weather: no significant weather observed at this time

METAR text: KLBE 151350Z 00000KT 10SM BKN034 M08/M09 A2996
Conditions at: KLBE (LATROBE/WESTMORL, PA, US) observed 1350 UTC 15 December 2017
Temperature: -8.0°C (18°F)
Dewpoint: -9.0°C (16°F) [RH = 92%]
Pressure (altimeter): 29.96 inches Hg (1014.6 mb)
Winds: calm
Visibility: 10 or more miles (16+ km)
Ceiling: 3400 feet AGL
Clouds: broken clouds at 3400 feet AGL
Weather: no significant weather observed at this time

METAR text: KLBE 151250Z 00000KT 10SM BKN032 M09/M10 A2997
Conditions at: KLBE (LATROBE/WESTMORL, PA, US) observed 1250 UTC 15 December 2017
Temperature: -9.0°C (16°F)
Dewpoint: -10.0°C (14°F) [RH = 92%]
Pressure (altimeter): 29.97 inches Hg (1015.0 mb)
Winds: calm
Visibility: 10 or more miles (16+ km)
Ceiling: 3200 feet AGL
Clouds: broken clouds at 3200 feet AGL
Weather: no significant weather observed at this time

METAR text: KLBE 151152Z 00000KT 10SM BKN036 M09/M10 A2998
Conditions at: KLBE (LATROBE/WESTMORL, PA, US) observed 1152 UTC 15 December 2017
Temperature: -9.0°C (16°F)
Dewpoint: -10.0°C (14°F) [RH = 92%]
Pressure (altimeter): 29.98 inches Hg (1015.3 mb)
Winds: calm
Visibility: 10 or more miles (16+ km)
Ceiling: 3600 feet AGL
Clouds: broken clouds at 3600 feet AGL
Weather: no significant weather observed at this time

METAR text: KLBE 151055Z AUTO 10SM SCT023 M09/M10 A2999 RMK AO2
Conditions at: KLBE (LATROBE/WESTMORL, PA, US) observed 1055 UTC 15 December 2017
Temperature: -9.0°C (16°F)
Dewpoint: -10.0°C (14°F) [RH = 92%]
Pressure (altimeter): 29.99 inches Hg (1015.7 mb)
Winds: missing
Visibility: 10 or more miles (16+ km)
Ceiling: at least 12,000 feet AGL
Clouds: scattered clouds at 2300 feet AGL
Weather: automated observation with no human augmentation;
there may or may not be significant weather present at this time

METAR text: KLBE 151035Z AUTO 00000KT 10SM OVC023 M10/M10 A2999 RMK AO2
Conditions at: KLBE (LATROBE/WESTMORL, PA, US) observed 1035 UTC 15 December 2017
Temperature: -10.0°C (14°F)
Dewpoint: -10.0°C (14°F) [RH = 100%]
Pressure (altimeter): 29.99 inches Hg (1015.7 mb)
Winds: calm
Visibility: 10 or more miles (16+ km)
Ceiling: 2300 feet AGL
Clouds: overcast cloud deck at 2300 feet AGL
Weather: automated observation with no human augmentation;
there may or may not be significant weather present at this time

METAR text: KLBE 151015Z AUTO 00000KT 10SM OVC025 M10/M11 A2998 RMK AO2
Conditions at: KLBE (LATROBE/WESTMORL, PA, US) observed 1015 UTC 15 December 2017
Temperature: -10.0°C (14°F)
Dewpoint: -11.0°C (12°F) [RH = 92%]
Pressure (altimeter): 29.98 inches Hg (1015.3 mb)
Winds: calm
Visibility: 10 or more miles (16+ km)
Ceiling: 2500 feet AGL
Clouds: overcast cloud deck at 2500 feet AGL
Weather: automated observation with no human augmentation;
there may or may not be significant weather present at this time

METAR text: KLBE 150955Z AUTO 00000KT 10SM BKN027 M10/M11 A2999 RMK AO2
Conditions at: KLBE (LATROBE/WESTMORL, PA, US) observed 0955 UTC 15 December 2017
Temperature: -10.0°C (14°F)
Dewpoint: -11.0°C (12°F) [RH = 92%]
Pressure (altimeter): 29.99 inches Hg (1015.7 mb)
Winds: calm
Visibility: 10 or more miles (16+ km)
Ceiling: 2700 feet AGL
Clouds: broken clouds at 2700 feet AGL
Weather: automated observation with no human augmentation;
there may or may not be significant weather present at this time

METAR text: KLBE 150935Z AUTO 00000KT 10SM SCT029 M10/M12 A3000 RMK AO2
Conditions at: KLBE (LATROBE/WESTMORL, PA, US) observed 0935 UTC 15 December 2017
Temperature: -10.0°C (14°F)
Dewpoint: -12.0°C (10°F) [RH = 85%]
Pressure (altimeter): 30.00 inches Hg (1016.0 mb)
Winds: calm
Visibility: 10 or more miles (16+ km)
Ceiling: at least 12,000 feet AGL
Clouds: scattered clouds at 2900 feet AGL
Weather: automated observation with no human augmentation;
there may or may not be significant weather present at this time

METAR text: KLBE 150915Z AUTO 00000KT 10SM CLR M10/M12 A3000 RMK AO2
Conditions at: KLBE (LATROBE/WESTMORL, PA, US) observed 0915 UTC 15 December 2017
Temperature: -10.0°C (14°F)
Dewpoint: -12.0°C (10°F) [RH = 85%]
Pressure (altimeter): 30.00 inches Hg (1016.0 mb)
Winds: calm
Visibility: 10 or more miles (16+ km)
Ceiling: at least 12,000 feet AGL
Clouds: sky clear below 12,000 feet AGL
Weather: automated observation with no human augmentation;
there may or may not be significant weather present at this time

METAR text: KLBE 150855Z AUTO 00000KT 10SM CLR M10/M12 A3000 RMK AO2
Conditions at: KLBE (LATROBE/WESTMORL, PA, US) observed 0855 UTC 15 December 2017
Temperature: -10.0°C (14°F)
Dewpoint: -12.0°C (10°F) [RH = 85%]
Pressure (altimeter): 30.00 inches Hg (1016.0 mb)
Winds: calm
Visibility: 10 or more miles (16+ km)
Ceiling: at least 12,000 feet AGL
Clouds: sky clear below 12,000 feet AGL
Weather: automated observation with no human augmentation;
there may or may not be significant weather present at this time

METAR text: KLBE 150835Z AUTO 00000KT 10SM CLR M10/M12 A3001 RMK AO2
Conditions at: KLBE (LATROBE/WESTMORL, PA, US) observed 0835 UTC 15 December 2017
Temperature: -10.0°C (14°F)
Dewpoint: -12.0°C (10°F) [RH = 85%]
Pressure (altimeter): 30.01 inches Hg (1016.3 mb)
Winds: calm
Visibility: 10 or more miles (16+ km)
Ceiling: at least 12,000 feet AGL
Clouds: sky clear below 12,000 feet AGL
Weather: automated observation with no human augmentation;
there may or may not be significant weather present at this time

METAR text: KLBE 150815Z AUTO 10SM CLR M11/M12 A3001 RMK AO2
Conditions at: KLBE (LATROBE/WESTMORL, PA, US) observed 0815 UTC 15 December 2017
Temperature: -11.0°C (12°F)
Dewpoint: -12.0°C (10°F) [RH = 92%]
Pressure (altimeter): 30.01 inches Hg (1016.3 mb)
Winds: missing
Visibility: 10 or more miles (16+ km)
Ceiling: at least 12,000 feet AGL
Clouds: sky clear below 12,000 feet AGL
Weather: automated observation with no human augmentation;
there may or may not be significant weather present at this time

METAR text: KLBE 150755Z AUTO 00000KT 10SM CLR M11/M12 A3002 RMK AO2
Conditions at: KLBE (LATROBE/WESTMORL, PA, US) observed 0755 UTC 15 December 2017
Temperature: -11.0°C (12°F)
Dewpoint: -12.0°C (10°F) [RH = 92%]
Pressure (altimeter): 30.02 inches Hg (1016.7 mb)
Winds: calm
Visibility: 10 or more miles (16+ km)
Ceiling: at least 12,000 feet AGL
Clouds: sky clear below 12,000 feet AGL
Weather: automated observation with no human augmentation;
there may or may not be significant weather present at this time

METAR text: KLBE 150735Z AUTO 00000KT 10SM CLR M11/M12 A3002 RMK AO2
Conditions at: KLBE (LATROBE/WESTMORL, PA, US) observed 0735 UTC 15 December 2017
Temperature: -11.0°C (12°F)
Dewpoint: -12.0°C (10°F) [RH = 92%]
Pressure (altimeter): 30.02 inches Hg (1016.7 mb)
Winds: calm
Visibility: 10 or more miles (16+ km)
Ceiling: at least 12,000 feet AGL
Clouds: sky clear below 12,000 feet AGL
Weather: automated observation with no human augmentation;
there may or may not be significant weather present at this time

METAR text: KLBE 150715Z AUTO 00000KT 10SM CLR M11/M12 A3002 RMK AO2
Conditions at: KLBE (LATROBE/WESTMORL, PA, US) observed 0715 UTC 15 December 2017
Temperature: -11.0°C (12°F)
Dewpoint: -12.0°C (10°F) [RH = 92%]
Pressure (altimeter): 30.02 inches Hg (1016.7 mb)
Winds: calm
Visibility: 10 or more miles (16+ km)
Ceiling: at least 12,000 feet AGL
Clouds: sky clear below 12,000 feet AGL
Weather: automated observation with no human augmentation;
there may or may not be significant weather present at this time

METAR text: KLBE 150655Z AUTO 00000KT 10SM FEW033 M10/M12 A3003 RMK AO2
Conditions at: KLBE (LATROBE/WESTMORL, PA, US) observed 0655 UTC 15 December 2017
Temperature: -10.0°C (14°F)
Dewpoint: -12.0°C (10°F) [RH = 85%]
Pressure (altimeter): 30.03 inches Hg (1017.0 mb)
Winds: calm
Visibility: 10 or more miles (16+ km)
Ceiling: at least 12,000 feet AGL
Clouds: few clouds at 3300 feet AGL
Weather: automated observation with no human augmentation;
there may or may not be significant weather present at this time

METAR text: KLBE 150635Z AUTO 00000KT 10SM BKN033 M10/M12 A3003 RMK AO2
Conditions at: KLBE (LATROBE/WESTMORL, PA, US) observed 0635 UTC 15 December 2017
Temperature: -10.0°C (14°F)
Dewpoint: -12.0°C (10°F) [RH = 85%]
Pressure (altimeter): 30.03 inches Hg (1017.0 mb)
Winds: calm
Visibility: 10 or more miles (16+ km)
Ceiling: 3300 feet AGL
Clouds: broken clouds at 3300 feet AGL
Weather: automated observation with no human augmentation;
there may or may not be significant weather present at this time

METAR text: KLBE 150615Z AUTO 00000KT 10SM OVC033 M10/M12 A3004 RMK AO2
Conditions at: KLBE (LATROBE/WESTMORL, PA, US) observed 0615 UTC 15 December 2017
Temperature: -10.0°C (14°F)
Dewpoint: -12.0°C (10°F) [RH = 85%]
Pressure (altimeter): 30.04 inches Hg (1017.4 mb)
Winds: calm
Visibility: 10 or more miles (16+ km)
Ceiling: 3300 feet AGL
Clouds: overcast cloud deck at 3300 feet AGL
Weather: automated observation with no human augmentation;
there may or may not be significant weather present at this time

METAR text: KLBE 150555Z AUTO 00000KT 10SM OVC033 M10/M12 A3004 RMK AO2
Conditions at: KLBE (LATROBE/WESTMORL, PA, US) observed 0555 UTC 15 December 2017
Temperature: -10.0°C (14°F)
Dewpoint: -12.0°C (10°F) [RH = 85%]
Pressure (altimeter): 30.04 inches Hg (1017.4 mb)
Winds: calm
Visibility: 10 or more miles (16+ km)
Ceiling: 3300 feet AGL
Clouds: overcast cloud deck at 3300 feet AGL
Weather: automated observation with no human augmentation;
there may or may not be significant weather present at this time

METAR text: KLBE 150535Z AUTO 00000KT 10SM BKN033 M10/M12 A3005 RMK AO2
Conditions at: KLBE (LATROBE/WESTMORL, PA, US) observed 0535 UTC 15 December 2017
Temperature: -10.0°C (14°F)
Dewpoint: -12.0°C (10°F) [RH = 85%]
Pressure (altimeter): 30.05 inches Hg (1017.7 mb)
Winds: calm
Visibility: 10 or more miles (16+ km)
Ceiling: 3300 feet AGL
Clouds: broken clouds at 3300 feet AGL
Weather: automated observation with no human augmentation;
there may or may not be significant weather present at this time

METAR text: KLBE 150515Z AUTO 00000KT 10SM SCT033 M10/M12 A3005 RMK AO2
Conditions at: KLBE (LATROBE/WESTMORL, PA, US) observed 0515 UTC 15 December 2017
Temperature: -10.0°C (14°F)
Dewpoint: -12.0°C (10°F) [RH = 85%]
Pressure (altimeter): 30.05 inches Hg (1017.7 mb)
Winds: calm
Visibility: 10 or more miles (16+ km)
Ceiling: at least 12,000 feet AGL
Clouds: scattered clouds at 3300 feet AGL
Weather: automated observation with no human augmentation;
there may or may not be significant weather present at this time

METAR text: KLBE 150455Z AUTO 00000KT 10SM BKN033 M10/M12 A3005 RMK AO2
Conditions at: KLBE (LATROBE/WESTMORL, PA, US) observed 0455 UTC 15 December 2017
Temperature: -10.0°C (14°F)
Dewpoint: -12.0°C (10°F) [RH = 85%]
Pressure (altimeter): 30.05 inches Hg (1017.7 mb)
Winds: calm
Visibility: 10 or more miles (16+ km)
Ceiling: 3300 feet AGL
Clouds: broken clouds at 3300 feet AGL
Weather: automated observation with no human augmentation;
there may or may not be significant weather present at this time

METAR text: KLBE 150435Z AUTO 00000KT 10SM SCT035 M10/M12 A3006 RMK AO2
Conditions at: KLBE (LATROBE/WESTMORL, PA, US) observed 0435 UTC 15 December 2017
Temperature: -10.0°C (14°F)
Dewpoint: -12.0°C (10°F) [RH = 85%]
Pressure (altimeter): 30.06 inches Hg (1018.0 mb)
Winds: calm
Visibility: 10 or more miles (16+ km)
Ceiling: at least 12,000 feet AGL
Clouds: scattered clouds at 3500 feet AGL
Weather: automated observation with no human augmentation;
there may or may not be significant weather present at this time

METAR text: KLBE 150415Z AUTO 00000KT 10SM FEW035 M10/M12 A3006 RMK AO2
Conditions at: KLBE (LATROBE/WESTMORL, PA, US) observed 0415 UTC 15 December 2017
Temperature: -10.0°C (14°F)
Dewpoint: -12.0°C (10°F) [RH = 85%]
Pressure (altimeter): 30.06 inches Hg (1018.0 mb)
Winds: calm
Visibility: 10 or more miles (16+ km)
Ceiling: at least 12,000 feet AGL
Clouds: few clouds at 3500 feet AGL
Weather: automated observation with no human augmentation;
there may or may not be significant weather present at this time

METAR text: KLBE 150355Z AUTO 00000KT 10SM CLR M10/M12 A3005 RMK AO2
Conditions at: KLBE (LATROBE/WESTMORL, PA, US) observed 0355 UTC 15 December 2017
Temperature: -10.0°C (14°F)
Dewpoint: -12.0°C (10°F) [RH = 85%]
Pressure (altimeter): 30.05 inches Hg (1017.7 mb)
Winds: calm
Visibility: 10 or more miles (16+ km)
Ceiling: at least 12,000 feet AGL
Clouds: sky clear below 12,000 feet AGL
Weather: automated observation with no human augmentation;
there may or may not be significant weather present at this time

METAR text: KLBE 150335Z AUTO 00000KT 10SM CLR M09/M12 A3006 RMK AO2
Conditions at: KLBE (LATROBE/WESTMORL, PA, US) observed 0335 UTC 15 December 2017
Temperature: -9.0°C (16°F)
Dewpoint: -12.0°C (10°F) [RH = 79%]
Pressure (altimeter): 30.06 inches Hg (1018.0 mb)
Winds: calm
Visibility: 10 or more miles (16+ km)
Ceiling: at least 12,000 feet AGL
Clouds: sky clear below 12,000 feet AGL
Weather: automated observation with no human augmentation;
there may or may not be significant weather present at this time

METAR text: KLBE 150315Z AUTO 34003KT 10SM CLR M09/M12 A3005 RMK AO2
Conditions at: KLBE (LATROBE/WESTMORL, PA, US) observed 0315 UTC 15 December 2017
Temperature: -9.0°C (16°F)
Dewpoint: -12.0°C (10°F) [RH = 79%]
Pressure (altimeter): 30.05 inches Hg (1017.7 mb)
Winds: from the NNW (340 degrees) at 3 MPH (3 knots; 1.6 m/s)
Visibility: 10 or more miles (16+ km)
Ceiling: at least 12,000 feet AGL
Clouds: sky clear below 12,000 feet AGL
Weather: automated observation with no human augmentation;
there may or may not be significant weather present at this time

METAR text: KLBE 150245Z 00000KT 10SM FEW038 M09/M12 A3005
Conditions at: KLBE (LATROBE/WESTMORL, PA, US) observed 0245 UTC 15 December 2017
Temperature: -9.0°C (16°F)
Dewpoint: -12.0°C (10°F) [RH = 79%]
Pressure (altimeter): 30.05 inches Hg (1017.7 mb)
Winds: calm
Visibility: 10 or more miles (16+ km)
Ceiling: at least 12,000 feet AGL
Clouds: few clouds at 3800 feet AGL
Weather: no significant weather observed at this time

METAR text: KLBE 150145Z 00000KT 10SM OVC040 M08/M11 A3006
Conditions at: KLBE (LATROBE/WESTMORL, PA, US) observed 0145 UTC 15 December 2017
Temperature: -8.0°C (18°F)
Dewpoint: -11.0°C (12°F) [RH = 79%]
Pressure (altimeter): 30.06 inches Hg (1018.0 mb)
Winds: calm
Visibility: 10 or more miles (16+ km)
Ceiling: 4000 feet AGL
Clouds: overcast cloud deck at 4000 feet AGL
Weather: no significant weather observed at this time

METAR text: KLBE 150045Z 00000KT 10SM OVC040 M08/M12 A3005
Conditions at: KLBE (LATROBE/WESTMORL, PA, US) observed 0045 UTC 15 December 2017
Temperature: -8.0°C (18°F)
Dewpoint: -12.0°C (10°F) [RH = 73%]
Pressure (altimeter): 30.05 inches Hg (1017.7 mb)
Winds: calm
Visibility: 10 or more miles (16+ km)
Ceiling: 4000 feet AGL
Clouds: overcast cloud deck at 4000 feet AGL
Weather: no significant weather observed at this time

METAR text: KLBE 142345Z COR 00000KT 10SM BKN040 M07/M12 A3004
Conditions at: KLBE (LATROBE/WESTMORL, PA, US) observed 2345 UTC 14 December 2017
Temperature: -7.0°C (19°F)
Dewpoint: -12.0°C (10°F) [RH = 67%]
Pressure (altimeter): 30.04 inches Hg (1017.4 mb)
Winds: calm
Visibility: 10 or more miles (16+ km)
Ceiling: 4000 feet AGL
Clouds: broken clouds at 4000 feet AGL
Weather: no significant weather observed at this time

METAR text: KLBE 142245Z 00000KT 10SM OVC038 M07/M12 A3002
Conditions at: KLBE (LATROBE/WESTMORL, PA, US) observed 2245 UTC 14 December 2017
Temperature: -7.0°C (19°F)
Dewpoint: -12.0°C (10°F) [RH = 67%]
Pressure (altimeter): 30.02 inches Hg (1016.7 mb)
Winds: calm
Visibility: 10 or more miles (16+ km)
Ceiling: 3800 feet AGL
Clouds: overcast cloud deck at 3800 feet AGL
Weather: no significant weather observed at this time

METAR text: KLBE 142145Z 35005KT 10SM SCT037 M05/M13 A2999
Conditions at: KLBE (LATROBE/WESTMORL, PA, US) observed 2145 UTC 14 December 2017
Temperature: -5.0°C (23°F)
Dewpoint: -13.0°C (9°F) [RH = 53%]
Pressure (altimeter): 29.99 inches Hg (1015.7 mb)
Winds: from the N (350 degrees) at 6 MPH (5 knots; 2.6 m/s)
Visibility: 10 or more miles (16+ km)
Ceiling: at least 12,000 feet AGL
Clouds: scattered clouds at 3700 feet AGL
Weather: no significant weather observed at this time

METAR text: KLBE 142045Z 32005KT 10SM BKN037 M04/M12 A2998
Conditions at: KLBE (LATROBE/WESTMORL, PA, US) observed 2045 UTC 14 December 2017
Temperature: -4.0°C (25°F)
Dewpoint: -12.0°C (10°F) [RH = 54%]
Pressure (altimeter): 29.98 inches Hg (1015.3 mb)
Winds: from the NW (320 degrees) at 6 MPH (5 knots; 2.6 m/s)
Visibility: 10 or more miles (16+ km)
Ceiling: 3700 feet AGL
Clouds: broken clouds at 3700 feet AGL
Weather: no significant weather observed at this time